sensor_id;sensor_type;location;lat;lon;timestamp;temperature;humidity
7576;DHT22;3829;50.798;4.358;2022-07-29T00:00:35;20.00;99.90
7576;DHT22;3829;50.798;4.358;2022-07-29T00:03:02;19.90;99.90
7576;DHT22;3829;50.798;4.358;2022-07-29T00:05:27;19.80;99.90
7576;DHT22;3829;50.798;4.358;2022-07-29T00:07:53;19.70;99.90
7576;DHT22;3829;50.798;4.358;2022-07-29T00:10:19;19.80;99.90
7576;DHT22;3829;50.798;4.358;2022-07-29T00:12:44;19.70;99.90
7576;DHT22;3829;50.798;4.358;2022-07-29T00:15:10;19.70;99.90
7576;DHT22;3829;50.798;4.358;2022-07-29T00:17:35;19.70;99.90
7576;DHT22;3829;50.798;4.358;2022-07-29T00:20:01;19.70;99.90
7576;DHT22;3829;50.798;4.358;2022-07-29T00:22:27;19.70;99.90
7576;DHT22;3829;50.798;4.358;2022-07-29T00:24:52;19.60;99.90
7576;DHT22;3829;50.798;4.358;2022-07-29T00:27:18;19.50;99.90
7576;DHT22;3829;50.798;4.358;2022-07-29T00:29:44;19.40;99.90
7576;DHT22;3829;50.798;4.358;2022-07-29T00:32:09;19.40;99.90
7576;DHT22;3829;50.798;4.358;2022-07-29T00:34:35;19.40;99.90
7576;DHT22;3829;50.798;4.358;2022-07-29T00:37:19;19.30;99.90
7576;DHT22;3829;50.798;4.358;2022-07-29T00:39:45;19.30;99.90
7576;DHT22;3829;50.798;4.358;2022-07-29T00:42:10;19.30;99.90
7576;DHT22;3829;50.798;4.358;2022-07-29T00:44:40;19.20;99.90
7576;DHT22;3829;50.798;4.358;2022-07-29T00:47:07;19.20;99.90
7576;DHT22;3829;50.798;4.358;2022-07-29T00:49:34;19.20;99.90
7576;DHT22;3829;50.798;4.358;2022-07-29T00:52:02;19.20;99.90
7576;DHT22;3829;50.798;4.358;2022-07-29T00:54:28;19.10;99.90
7576;DHT22;3829;50.798;4.358;2022-07-29T00:56:56;19.10;99.90
7576;DHT22;3829;50.798;4.358;2022-07-29T00:59:23;19.00;99.90
7576;DHT22;3829;50.798;4.358;2022-07-29T01:01:48;18.90;99.90
7576;DHT22;3829;50.798;4.358;2022-07-29T01:04:14;18.90;99.90
7576;DHT22;3829;50.798;4.358;2022-07-29T01:06:40;18.90;99.90
7576;DHT22;3829;50.798;4.358;2022-07-29T01:09:06;18.70;99.90
7576;DHT22;3829;50.798;4.358;2022-07-29T01:11:32;18.80;99.90
7576;DHT22;3829;50.798;4.358;2022-07-29T01:14:00;18.60;99.90
7576;DHT22;3829;50.798;4.358;2022-07-29T01:16:36;18.70;99.90
7576;DHT22;3829;50.798;4.358;2022-07-29T01:19:28;18.70;99.90
7576;DHT22;3829;50.798;4.358;2022-07-29T01:21:59;18.60;99.90
7576;DHT22;3829;50.798;4.358;2022-07-29T01:27:37;18.50;99.90
7576;DHT22;3829;50.798;4.358;2022-07-29T01:30:04;18.60;99.90
7576;DHT22;3829;50.798;4.358;2022-07-29T01:32:33;18.50;99.90
7576;DHT22;3829;50.798;4.358;2022-07-29T01:35:20;18.30;99.90
7576;DHT22;3829;50.798;4.358;2022-07-29T01:38:00;18.40;99.90
7576;DHT22;3829;50.798;4.358;2022-07-29T01:43:20;18.30;99.90
7576;DHT22;3829;50.798;4.358;2022-07-29T01:46:01;18.40;99.90
7576;DHT22;3829;50.798;4.358;2022-07-29T01:48:34;18.30;99.90
7576;DHT22;3829;50.798;4.358;2022-07-29T01:51:06;18.20;99.90
7576;DHT22;3829;50.798;4.358;2022-07-29T01:53:39;18.10;99.90
7576;DHT22;3829;50.798;4.358;2022-07-29T01:56:09;18.10;99.90
7576;DHT22;3829;50.798;4.358;2022-07-29T01:58:39;18.10;99.90
7576;DHT22;3829;50.798;4.358;2022-07-29T02:01:06;18.00;99.90
7576;DHT22;3829;50.798;4.358;2022-07-29T02:03:35;17.90;99.90
7576;DHT22;3829;50.798;4.358;2022-07-29T02:06:03;18.00;99.90
7576;DHT22;3829;50.798;4.358;2022-07-29T02:08:31;18.00;99.90
7576;DHT22;3829;50.798;4.358;2022-07-29T02:10:59;17.90;99.90
7576;DHT22;3829;50.798;4.358;2022-07-29T02:13:26;17.80;99.90
7576;DHT22;3829;50.798;4.358;2022-07-29T02:15:53;17.80;99.90
7576;DHT22;3829;50.798;4.358;2022-07-29T02:18:20;17.80;99.90
7576;DHT22;3829;50.798;4.358;2022-07-29T02:20:50;17.80;99.90
7576;DHT22;3829;50.798;4.358;2022-07-29T02:23:21;17.70;99.90
7576;DHT22;3829;50.798;4.358;2022-07-29T02:25:55;17.80;99.90
7576;DHT22;3829;50.798;4.358;2022-07-29T02:28:24;17.80;99.90
7576;DHT22;3829;50.798;4.358;2022-07-29T02:30:52;17.70;99.90
7576;DHT22;3829;50.798;4.358;2022-07-29T02:33:19;17.60;99.90
7576;DHT22;3829;50.798;4.358;2022-07-29T02:35:47;17.60;99.90
7576;DHT22;3829;50.798;4.358;2022-07-29T02:38:15;17.60;99.90
7576;DHT22;3829;50.798;4.358;2022-07-29T02:41:11;17.50;99.90
7576;DHT22;3829;50.798;4.358;2022-07-29T02:43:40;17.60;99.90
7576;DHT22;3829;50.798;4.358;2022-07-29T02:46:12;17.50;99.90
7576;DHT22;3829;50.798;4.358;2022-07-29T02:48:41;17.50;99.90
7576;DHT22;3829;50.798;4.358;2022-07-29T02:51:17;17.40;99.90
7576;DHT22;3829;50.798;4.358;2022-07-29T02:53:48;17.50;99.90
7576;DHT22;3829;50.798;4.358;2022-07-29T02:56:16;17.50;99.90
7576;DHT22;3829;50.798;4.358;2022-07-29T02:58:58;17.50;99.90
7576;DHT22;3829;50.798;4.358;2022-07-29T03:01:25;17.40;99.90
7576;DHT22;3829;50.798;4.358;2022-07-29T03:03:54;17.30;99.90
7576;DHT22;3829;50.798;4.358;2022-07-29T03:06:22;17.40;99.90
7576;DHT22;3829;50.798;4.358;2022-07-29T03:08:49;17.40;99.90
7576;DHT22;3829;50.798;4.358;2022-07-29T03:11:16;17.30;99.90
7576;DHT22;3829;50.798;4.358;2022-07-29T03:13:43;17.40;99.90
7576;DHT22;3829;50.798;4.358;2022-07-29T03:16:09;17.40;99.90
7576;DHT22;3829;50.798;4.358;2022-07-29T03:18:36;17.40;99.90
7576;DHT22;3829;50.798;4.358;2022-07-29T03:21:03;17.40;99.90
7576;DHT22;3829;50.798;4.358;2022-07-29T03:23:30;17.30;99.90
7576;DHT22;3829;50.798;4.358;2022-07-29T03:25:56;17.30;99.90
7576;DHT22;3829;50.798;4.358;2022-07-29T03:28:22;17.30;99.90
7576;DHT22;3829;50.798;4.358;2022-07-29T03:30:49;17.20;99.90
7576;DHT22;3829;50.798;4.358;2022-07-29T03:33:15;17.30;99.90
7576;DHT22;3829;50.798;4.358;2022-07-29T03:35:41;17.20;99.90
7576;DHT22;3829;50.798;4.358;2022-07-29T03:38:06;17.20;99.90
7576;DHT22;3829;50.798;4.358;2022-07-29T03:40:42;17.10;99.90
7576;DHT22;3829;50.798;4.358;2022-07-29T03:43:10;17.10;99.90
7576;DHT22;3829;50.798;4.358;2022-07-29T03:45:37;17.20;99.90
7576;DHT22;3829;50.798;4.358;2022-07-29T03:48:08;17.10;99.90
7576;DHT22;3829;50.798;4.358;2022-07-29T03:50:35;17.10;99.90
7576;DHT22;3829;50.798;4.358;2022-07-29T03:53:01;17.00;99.90
7576;DHT22;3829;50.798;4.358;2022-07-29T03:55:30;17.00;99.90
7576;DHT22;3829;50.798;4.358;2022-07-29T03:57:58;17.10;99.90
7576;DHT22;3829;50.798;4.358;2022-07-29T04:00:25;16.90;99.90
7576;DHT22;3829;50.798;4.358;2022-07-29T04:02:52;16.90;99.90
7576;DHT22;3829;50.798;4.358;2022-07-29T04:05:18;16.90;99.90
7576;DHT22;3829;50.798;4.358;2022-07-29T04:07:45;17.00;99.90
7576;DHT22;3829;50.798;4.358;2022-07-29T04:10:10;17.00;99.90
7576;DHT22;3829;50.798;4.358;2022-07-29T04:12:36;16.80;99.90
7576;DHT22;3829;50.798;4.358;2022-07-29T04:15:05;16.80;99.90
7576;DHT22;3829;50.798;4.358;2022-07-29T04:17:31;16.70;99.90
7576;DHT22;3829;50.798;4.358;2022-07-29T04:19:57;16.70;99.90
7576;DHT22;3829;50.798;4.358;2022-07-29T04:22:22;16.70;99.90
7576;DHT22;3829;50.798;4.358;2022-07-29T04:24:48;16.70;99.90
7576;DHT22;3829;50.798;4.358;2022-07-29T04:27:13;16.70;99.90
7576;DHT22;3829;50.798;4.358;2022-07-29T04:29:39;16.60;99.90
7576;DHT22;3829;50.798;4.358;2022-07-29T04:32:05;16.60;99.90
7576;DHT22;3829;50.798;4.358;2022-07-29T04:34:31;16.70;99.90
7576;DHT22;3829;50.798;4.358;2022-07-29T04:36:56;16.70;99.90
7576;DHT22;3829;50.798;4.358;2022-07-29T04:39:22;16.80;99.90
7576;DHT22;3829;50.798;4.358;2022-07-29T04:41:47;16.80;99.90
7576;DHT22;3829;50.798;4.358;2022-07-29T04:44:13;16.80;99.90
7576;DHT22;3829;50.798;4.358;2022-07-29T04:46:38;16.90;99.90
7576;DHT22;3829;50.798;4.358;2022-07-29T04:49:04;17.00;99.90
7576;DHT22;3829;50.798;4.358;2022-07-29T04:51:30;16.90;99.90
7576;DHT22;3829;50.798;4.358;2022-07-29T04:53:56;16.90;99.90
7576;DHT22;3829;50.798;4.358;2022-07-29T04:56:22;16.90;99.90
7576;DHT22;3829;50.798;4.358;2022-07-29T04:58:47;16.90;99.90
7576;DHT22;3829;50.798;4.358;2022-07-29T05:01:13;17.00;99.90
7576;DHT22;3829;50.798;4.358;2022-07-29T05:03:40;17.10;99.90
7576;DHT22;3829;50.798;4.358;2022-07-29T05:06:06;17.00;99.90
7576;DHT22;3829;50.798;4.358;2022-07-29T05:08:32;17.10;99.90
7576;DHT22;3829;50.798;4.358;2022-07-29T05:10:57;17.10;99.90
7576;DHT22;3829;50.798;4.358;2022-07-29T05:13:23;17.10;99.90
7576;DHT22;3829;50.798;4.358;2022-07-29T05:15:49;17.30;99.90
7576;DHT22;3829;50.798;4.358;2022-07-29T05:18:15;17.40;99.90
7576;DHT22;3829;50.798;4.358;2022-07-29T05:20:41;17.40;99.90
7576;DHT22;3829;50.798;4.358;2022-07-29T05:23:06;17.40;99.90
7576;DHT22;3829;50.798;4.358;2022-07-29T05:25:32;17.40;99.90
7576;DHT22;3829;50.798;4.358;2022-07-29T05:27:58;17.40;99.90
7576;DHT22;3829;50.798;4.358;2022-07-29T05:30:24;17.50;99.90
7576;DHT22;3829;50.798;4.358;2022-07-29T05:32:50;17.60;99.90
7576;DHT22;3829;50.798;4.358;2022-07-29T05:35:15;17.70;99.90
7576;DHT22;3829;50.798;4.358;2022-07-29T05:37:41;17.80;99.90
7576;DHT22;3829;50.798;4.358;2022-07-29T05:40:07;17.80;99.90
7576;DHT22;3829;50.798;4.358;2022-07-29T05:42:34;17.80;99.90
7576;DHT22;3829;50.798;4.358;2022-07-29T05:44:59;17.90;99.90
7576;DHT22;3829;50.798;4.358;2022-07-29T05:47:25;17.90;99.90
7576;DHT22;3829;50.798;4.358;2022-07-29T05:49:51;17.80;99.90
7576;DHT22;3829;50.798;4.358;2022-07-29T05:52:16;17.80;99.90
7576;DHT22;3829;50.798;4.358;2022-07-29T05:54:43;17.80;99.90
7576;DHT22;3829;50.798;4.358;2022-07-29T05:57:14;17.80;99.90
7576;DHT22;3829;50.798;4.358;2022-07-29T05:59:40;17.80;99.90
7576;DHT22;3829;50.798;4.358;2022-07-29T06:02:05;17.80;99.90
7576;DHT22;3829;50.798;4.358;2022-07-29T06:04:32;17.80;99.90
7576;DHT22;3829;50.798;4.358;2022-07-29T06:06:58;17.80;99.90
7576;DHT22;3829;50.798;4.358;2022-07-29T06:09:23;17.70;99.90
7576;DHT22;3829;50.798;4.358;2022-07-29T06:11:49;17.90;99.90
7576;DHT22;3829;50.798;4.358;2022-07-29T06:14:15;17.80;99.90
7576;DHT22;3829;50.798;4.358;2022-07-29T06:16:41;17.90;99.90
7576;DHT22;3829;50.798;4.358;2022-07-29T06:19:06;18.00;99.90
7576;DHT22;3829;50.798;4.358;2022-07-29T06:21:32;18.30;99.90
7576;DHT22;3829;50.798;4.358;2022-07-29T06:23:59;18.20;99.90
7576;DHT22;3829;50.798;4.358;2022-07-29T06:26:24;18.30;99.90
7576;DHT22;3829;50.798;4.358;2022-07-29T06:28:50;18.50;99.90
7576;DHT22;3829;50.798;4.358;2022-07-29T06:31:15;18.50;99.90
7576;DHT22;3829;50.798;4.358;2022-07-29T06:33:41;18.60;99.90
7576;DHT22;3829;50.798;4.358;2022-07-29T06:36:07;18.70;99.90
7576;DHT22;3829;50.798;4.358;2022-07-29T06:38:33;18.80;99.90
7576;DHT22;3829;50.798;4.358;2022-07-29T06:40:59;18.90;99.90
7576;DHT22;3829;50.798;4.358;2022-07-29T06:43:43;19.00;99.90
7576;DHT22;3829;50.798;4.358;2022-07-29T06:46:14;19.10;99.90
7576;DHT22;3829;50.798;4.358;2022-07-29T06:48:41;19.40;99.90
7576;DHT22;3829;50.798;4.358;2022-07-29T06:51:08;19.70;99.90
7576;DHT22;3829;50.798;4.358;2022-07-29T06:53:35;20.10;99.90
7576;DHT22;3829;50.798;4.358;2022-07-29T06:56:02;20.50;99.90
7576;DHT22;3829;50.798;4.358;2022-07-29T06:58:28;20.80;99.90
7576;DHT22;3829;50.798;4.358;2022-07-29T07:00:57;21.30;99.90
7576;DHT22;3829;50.798;4.358;2022-07-29T07:03:23;21.30;99.90
7576;DHT22;3829;50.798;4.358;2022-07-29T07:05:50;21.60;99.90
7576;DHT22;3829;50.798;4.358;2022-07-29T07:08:17;21.80;99.90
7576;DHT22;3829;50.798;4.358;2022-07-29T07:10:42;21.40;99.90
7576;DHT22;3829;50.798;4.358;2022-07-29T07:13:08;21.40;99.90
7576;DHT22;3829;50.798;4.358;2022-07-29T07:15:35;21.40;99.90
7576;DHT22;3829;50.798;4.358;2022-07-29T07:18:02;21.30;99.90
7576;DHT22;3829;50.798;4.358;2022-07-29T07:20:28;21.00;99.90
7576;DHT22;3829;50.798;4.358;2022-07-29T07:22:53;21.00;99.90
7576;DHT22;3829;50.798;4.358;2022-07-29T07:25:19;20.60;99.90
7576;DHT22;3829;50.798;4.358;2022-07-29T07:27:45;20.40;99.90
7576;DHT22;3829;50.798;4.358;2022-07-29T07:30:11;20.50;99.90
7576;DHT22;3829;50.798;4.358;2022-07-29T07:32:37;20.50;99.90
7576;DHT22;3829;50.798;4.358;2022-07-29T07:35:07;20.60;99.90
7576;DHT22;3829;50.798;4.358;2022-07-29T07:37:33;20.40;99.90
7576;DHT22;3829;50.798;4.358;2022-07-29T07:39:59;20.20;99.90
7576;DHT22;3829;50.798;4.358;2022-07-29T07:42:25;20.20;99.90
7576;DHT22;3829;50.798;4.358;2022-07-29T07:44:51;20.20;99.90
7576;DHT22;3829;50.798;4.358;2022-07-29T07:47:16;20.30;99.90
7576;DHT22;3829;50.798;4.358;2022-07-29T07:49:46;20.30;99.90
7576;DHT22;3829;50.798;4.358;2022-07-29T07:52:12;20.30;99.90
7576;DHT22;3829;50.798;4.358;2022-07-29T07:54:38;20.30;99.90
7576;DHT22;3829;50.798;4.358;2022-07-29T07:57:03;20.50;99.90
7576;DHT22;3829;50.798;4.358;2022-07-29T07:59:29;20.60;99.90
7576;DHT22;3829;50.798;4.358;2022-07-29T08:01:55;20.60;99.90
7576;DHT22;3829;50.798;4.358;2022-07-29T08:04:21;20.50;99.90
7576;DHT22;3829;50.798;4.358;2022-07-29T08:06:46;20.60;99.90
7576;DHT22;3829;50.798;4.358;2022-07-29T08:09:12;20.80;99.90
7576;DHT22;3829;50.798;4.358;2022-07-29T08:11:37;21.00;99.90
7576;DHT22;3829;50.798;4.358;2022-07-29T08:14:03;21.00;99.90
7576;DHT22;3829;50.798;4.358;2022-07-29T08:16:29;21.00;99.90
7576;DHT22;3829;50.798;4.358;2022-07-29T08:18:54;21.10;99.90
7576;DHT22;3829;50.798;4.358;2022-07-29T08:21:22;21.10;99.90
7576;DHT22;3829;50.798;4.358;2022-07-29T08:23:48;21.20;99.90
7576;DHT22;3829;50.798;4.358;2022-07-29T08:26:16;21.60;99.90
7576;DHT22;3829;50.798;4.358;2022-07-29T08:28:43;21.70;99.90
7576;DHT22;3829;50.798;4.358;2022-07-29T08:31:16;21.90;99.90
7576;DHT22;3829;50.798;4.358;2022-07-29T08:33:42;22.00;99.90
7576;DHT22;3829;50.798;4.358;2022-07-29T08:36:08;22.00;99.90
7576;DHT22;3829;50.798;4.358;2022-07-29T08:38:34;22.00;99.90
7576;DHT22;3829;50.798;4.358;2022-07-29T08:41:00;22.10;99.90
7576;DHT22;3829;50.798;4.358;2022-07-29T08:43:29;22.10;99.90
7576;DHT22;3829;50.798;4.358;2022-07-29T08:45:55;22.30;99.90
7576;DHT22;3829;50.798;4.358;2022-07-29T08:48:22;22.50;99.90
7576;DHT22;3829;50.798;4.358;2022-07-29T08:50:50;22.40;99.90
7576;DHT22;3829;50.798;4.358;2022-07-29T08:53:18;22.30;99.90
7576;DHT22;3829;50.798;4.358;2022-07-29T08:55:49;22.50;99.90
7576;DHT22;3829;50.798;4.358;2022-07-29T08:58:15;22.70;99.90
7576;DHT22;3829;50.798;4.358;2022-07-29T09:00:46;22.70;99.90
7576;DHT22;3829;50.798;4.358;2022-07-29T09:03:20;22.70;99.90
7576;DHT22;3829;50.798;4.358;2022-07-29T09:05:46;22.90;99.90
7576;DHT22;3829;50.798;4.358;2022-07-29T09:08:16;23.10;99.90
7576;DHT22;3829;50.798;4.358;2022-07-29T09:10:43;23.40;99.90
7576;DHT22;3829;50.798;4.358;2022-07-29T09:13:08;23.50;99.90
7576;DHT22;3829;50.798;4.358;2022-07-29T09:15:34;23.70;99.90
7576;DHT22;3829;50.798;4.358;2022-07-29T09:18:00;23.60;99.90
7576;DHT22;3829;50.798;4.358;2022-07-29T09:20:26;23.80;99.90
7576;DHT22;3829;50.798;4.358;2022-07-29T09:23:12;23.80;99.90
7576;DHT22;3829;50.798;4.358;2022-07-29T09:25:40;23.90;99.90
7576;DHT22;3829;50.798;4.358;2022-07-29T09:28:07;23.80;99.90
7576;DHT22;3829;50.798;4.358;2022-07-29T09:30:33;23.80;99.90
7576;DHT22;3829;50.798;4.358;2022-07-29T09:33:01;24.00;99.90
7576;DHT22;3829;50.798;4.358;2022-07-29T09:35:29;24.10;99.90
7576;DHT22;3829;50.798;4.358;2022-07-29T09:37:55;23.80;99.90
7576;DHT22;3829;50.798;4.358;2022-07-29T09:40:23;23.60;99.90
7576;DHT22;3829;50.798;4.358;2022-07-29T09:42:50;23.90;99.90
7576;DHT22;3829;50.798;4.358;2022-07-29T09:45:30;23.70;99.90
7576;DHT22;3829;50.798;4.358;2022-07-29T09:47:56;23.40;99.90
7576;DHT22;3829;50.798;4.358;2022-07-29T09:50:45;23.80;99.90
7576;DHT22;3829;50.798;4.358;2022-07-29T09:53:32;24.20;99.90
7576;DHT22;3829;50.798;4.358;2022-07-29T09:55:59;24.20;99.90
7576;DHT22;3829;50.798;4.358;2022-07-29T09:58:24;24.30;99.90
7576;DHT22;3829;50.798;4.358;2022-07-29T10:00:51;24.60;99.90
7576;DHT22;3829;50.798;4.358;2022-07-29T10:03:18;24.90;99.90
7576;DHT22;3829;50.798;4.358;2022-07-29T10:05:45;25.10;99.90
7576;DHT22;3829;50.798;4.358;2022-07-29T10:08:12;25.10;99.90
7576;DHT22;3829;50.798;4.358;2022-07-29T10:10:40;24.80;99.90
7576;DHT22;3829;50.798;4.358;2022-07-29T10:13:08;24.80;99.90
7576;DHT22;3829;50.798;4.358;2022-07-29T10:15:36;24.70;99.90
7576;DHT22;3829;50.798;4.358;2022-07-29T10:18:05;24.60;99.90
7576;DHT22;3829;50.798;4.358;2022-07-29T10:20:31;24.60;99.90
7576;DHT22;3829;50.798;4.358;2022-07-29T10:22:57;24.60;99.90
7576;DHT22;3829;50.798;4.358;2022-07-29T10:25:23;24.20;99.90
7576;DHT22;3829;50.798;4.358;2022-07-29T10:27:50;24.20;99.90
7576;DHT22;3829;50.798;4.358;2022-07-29T10:30:20;24.40;99.90
7576;DHT22;3829;50.798;4.358;2022-07-29T10:38:34;25.30;99.90
7576;DHT22;3829;50.798;4.358;2022-07-29T10:46:25;25.10;99.90
7576;DHT22;3829;50.798;4.358;2022-07-29T10:49:25;24.90;99.90
7576;DHT22;3829;50.798;4.358;2022-07-29T10:51:56;24.90;99.90
7576;DHT22;3829;50.798;4.358;2022-07-29T10:59:50;25.40;99.90
7576;DHT22;3829;50.798;4.358;2022-07-29T11:05:06;25.60;99.90
7576;DHT22;3829;50.798;4.358;2022-07-29T11:07:35;25.90;99.90
7576;DHT22;3829;50.798;4.358;2022-07-29T11:15:13;25.90;99.90
7576;DHT22;3829;50.798;4.358;2022-07-29T11:20:43;26.60;99.90
7576;DHT22;3829;50.798;4.358;2022-07-29T11:23:32;27.00;99.90
7576;DHT22;3829;50.798;4.358;2022-07-29T11:26:19;27.10;99.90
7576;DHT22;3829;50.798;4.358;2022-07-29T11:28:53;26.90;99.90
7576;DHT22;3829;50.798;4.358;2022-07-29T11:31:32;26.50;99.90
7576;DHT22;3829;50.798;4.358;2022-07-29T11:34:18;26.40;99.90
7576;DHT22;3829;50.798;4.358;2022-07-29T11:39:33;27.00;99.90
7576;DHT22;3829;50.798;4.358;2022-07-29T11:47:28;27.10;99.90
7576;DHT22;3829;50.798;4.358;2022-07-29T11:49:56;27.00;99.90
7576;DHT22;3829;50.798;4.358;2022-07-29T11:52:22;27.10;99.90
7576;DHT22;3829;50.798;4.358;2022-07-29T11:54:50;26.90;99.90
7576;DHT22;3829;50.798;4.358;2022-07-29T11:57:17;26.90;99.90
7576;DHT22;3829;50.798;4.358;2022-07-29T11:59:45;27.00;99.90
7576;DHT22;3829;50.798;4.358;2022-07-29T12:02:12;27.00;99.90
7576;DHT22;3829;50.798;4.358;2022-07-29T12:04:55;26.90;99.90
7576;DHT22;3829;50.798;4.358;2022-07-29T12:07:28;27.10;99.90
7576;DHT22;3829;50.798;4.358;2022-07-29T12:09:54;27.00;99.90
7576;DHT22;3829;50.798;4.358;2022-07-29T12:12:21;26.70;99.90
7576;DHT22;3829;50.798;4.358;2022-07-29T12:14:47;26.80;99.90
7576;DHT22;3829;50.798;4.358;2022-07-29T12:17:29;26.60;99.90
7576;DHT22;3829;50.798;4.358;2022-07-29T12:19:56;26.30;99.90
7576;DHT22;3829;50.798;4.358;2022-07-29T12:22:40;26.60;99.90
7576;DHT22;3829;50.798;4.358;2022-07-29T12:25:10;27.00;99.90
7576;DHT22;3829;50.798;4.358;2022-07-29T12:27:37;27.50;99.90
7576;DHT22;3829;50.798;4.358;2022-07-29T12:30:09;27.90;99.20
7576;DHT22;3829;50.798;4.358;2022-07-29T12:32:40;28.20;99.70
7576;DHT22;3829;50.798;4.358;2022-07-29T12:35:15;28.30;99.70
7576;DHT22;3829;50.798;4.358;2022-07-29T12:37:43;28.50;98.30
7576;DHT22;3829;50.798;4.358;2022-07-29T12:40:10;28.30;98.50
7576;DHT22;3829;50.798;4.358;2022-07-29T12:42:36;28.20;98.30
7576;DHT22;3829;50.798;4.358;2022-07-29T12:45:03;27.90;98.80
7576;DHT22;3829;50.798;4.358;2022-07-29T12:47:29;27.40;99.30
7576;DHT22;3829;50.798;4.358;2022-07-29T12:50:12;27.60;98.70
7576;DHT22;3829;50.798;4.358;2022-07-29T12:52:46;27.00;98.80
7576;DHT22;3829;50.798;4.358;2022-07-29T12:55:12;27.60;99.40
7576;DHT22;3829;50.798;4.358;2022-07-29T12:57:50;27.60;99.20
7576;DHT22;3829;50.798;4.358;2022-07-29T13:00:22;27.20;99.20
7576;DHT22;3829;50.798;4.358;2022-07-29T13:02:56;27.30;99.90
7576;DHT22;3829;50.798;4.358;2022-07-29T13:05:22;27.90;99.50
7576;DHT22;3829;50.798;4.358;2022-07-29T13:07:49;27.80;98.70
7576;DHT22;3829;50.798;4.358;2022-07-29T13:10:20;27.50;98.40
7576;DHT22;3829;50.798;4.358;2022-07-29T13:13:12;27.30;98.80
7576;DHT22;3829;50.798;4.358;2022-07-29T13:15:41;27.20;99.10
7576;DHT22;3829;50.798;4.358;2022-07-29T13:18:30;27.00;99.40
7576;DHT22;3829;50.798;4.358;2022-07-29T13:20:56;26.90;99.50
7576;DHT22;3829;50.798;4.358;2022-07-29T13:23:22;27.20;99.20
7576;DHT22;3829;50.798;4.358;2022-07-29T13:25:48;27.10;99.00
7576;DHT22;3829;50.798;4.358;2022-07-29T13:28:13;27.40;99.10
7576;DHT22;3829;50.798;4.358;2022-07-29T13:30:40;28.30;99.30
7576;DHT22;3829;50.798;4.358;2022-07-29T13:33:06;29.60;98.50
7576;DHT22;3829;50.798;4.358;2022-07-29T13:35:32;29.40;98.10
7576;DHT22;3829;50.798;4.358;2022-07-29T13:37:58;30.20;98.00
7576;DHT22;3829;50.798;4.358;2022-07-29T13:40:24;30.10;97.60
7576;DHT22;3829;50.798;4.358;2022-07-29T13:42:50;29.90;98.20
7576;DHT22;3829;50.798;4.358;2022-07-29T13:45:15;30.40;96.80
7576;DHT22;3829;50.798;4.358;2022-07-29T13:47:41;30.90;97.00
7576;DHT22;3829;50.798;4.358;2022-07-29T13:50:08;30.10;97.60
7576;DHT22;3829;50.798;4.358;2022-07-29T13:52:35;30.90;97.10
7576;DHT22;3829;50.798;4.358;2022-07-29T13:55:01;31.50;96.00
7576;DHT22;3829;50.798;4.358;2022-07-29T13:57:28;30.10;96.50
7576;DHT22;3829;50.798;4.358;2022-07-29T13:59:54;30.40;96.70
7576;DHT22;3829;50.798;4.358;2022-07-29T14:02:20;30.50;95.40
7576;DHT22;3829;50.798;4.358;2022-07-29T14:04:46;29.20;97.00
7576;DHT22;3829;50.798;4.358;2022-07-29T14:07:11;30.50;95.90
7576;DHT22;3829;50.798;4.358;2022-07-29T14:09:37;31.40;95.50
7576;DHT22;3829;50.798;4.358;2022-07-29T14:12:03;30.80;95.40
7576;DHT22;3829;50.798;4.358;2022-07-29T14:14:29;32.00;94.50
7576;DHT22;3829;50.798;4.358;2022-07-29T14:16:56;32.90;94.20
7576;DHT22;3829;50.798;4.358;2022-07-29T14:19:22;32.50;93.20
7576;DHT22;3829;50.798;4.358;2022-07-29T14:21:48;32.40;92.70
7576;DHT22;3829;50.798;4.358;2022-07-29T14:24:13;32.00;92.60
7576;DHT22;3829;50.798;4.358;2022-07-29T14:26:39;31.90;92.70
7576;DHT22;3829;50.798;4.358;2022-07-29T14:29:04;32.10;92.20
7576;DHT22;3829;50.798;4.358;2022-07-29T14:31:30;31.90;92.20
7576;DHT22;3829;50.798;4.358;2022-07-29T14:33:56;31.60;92.00
7576;DHT22;3829;50.798;4.358;2022-07-29T14:36:21;31.00;92.50
7576;DHT22;3829;50.798;4.358;2022-07-29T14:38:47;30.80;92.10
7576;DHT22;3829;50.798;4.358;2022-07-29T14:41:12;30.90;92.50
7576;DHT22;3829;50.798;4.358;2022-07-29T14:43:38;30.60;92.50
7576;DHT22;3829;50.798;4.358;2022-07-29T14:46:04;30.30;93.00
7576;DHT22;3829;50.798;4.358;2022-07-29T14:48:29;29.60;93.30
7576;DHT22;3829;50.798;4.358;2022-07-29T14:50:55;30.10;94.00
7576;DHT22;3829;50.798;4.358;2022-07-29T14:53:21;31.20;93.30
7576;DHT22;3829;50.798;4.358;2022-07-29T14:55:47;32.30;92.00
7576;DHT22;3829;50.798;4.358;2022-07-29T14:58:13;33.30;92.40
7576;DHT22;3829;50.798;4.358;2022-07-29T15:00:39;34.20;90.50
7576;DHT22;3829;50.798;4.358;2022-07-29T15:03:04;33.70;90.20
7576;DHT22;3829;50.798;4.358;2022-07-29T15:05:31;34.00;88.90
7576;DHT22;3829;50.798;4.358;2022-07-29T15:07:57;33.50;87.70
7576;DHT22;3829;50.798;4.358;2022-07-29T15:10:22;33.30;89.40
7576;DHT22;3829;50.798;4.358;2022-07-29T15:12:48;34.10;88.30
7576;DHT22;3829;50.798;4.358;2022-07-29T15:15:14;33.60;87.10
7576;DHT22;3829;50.798;4.358;2022-07-29T15:17:39;33.80;87.70
7576;DHT22;3829;50.798;4.358;2022-07-29T15:20:06;32.60;87.40
7576;DHT22;3829;50.798;4.358;2022-07-29T15:22:31;33.10;89.80
7576;DHT22;3829;50.798;4.358;2022-07-29T15:24:57;32.80;88.60
7576;DHT22;3829;50.798;4.358;2022-07-29T15:27:23;32.70;89.30
7576;DHT22;3829;50.798;4.358;2022-07-29T15:29:48;33.50;89.00
7576;DHT22;3829;50.798;4.358;2022-07-29T15:32:14;33.90;89.20
7576;DHT22;3829;50.798;4.358;2022-07-29T15:34:40;32.30;89.00
7576;DHT22;3829;50.798;4.358;2022-07-29T15:37:06;32.80;88.50
7576;DHT22;3829;50.798;4.358;2022-07-29T15:39:31;32.00;89.50
7576;DHT22;3829;50.798;4.358;2022-07-29T15:41:57;30.50;90.30
7576;DHT22;3829;50.798;4.358;2022-07-29T15:44:25;30.20;90.70
7576;DHT22;3829;50.798;4.358;2022-07-29T15:46:50;30.60;90.80
7576;DHT22;3829;50.798;4.358;2022-07-29T15:49:29;30.10;90.80
7576;DHT22;3829;50.798;4.358;2022-07-29T15:52:05;29.90;90.60
7576;DHT22;3829;50.798;4.358;2022-07-29T15:54:32;29.80;90.60
7576;DHT22;3829;50.798;4.358;2022-07-29T15:56:58;30.20;90.90
7576;DHT22;3829;50.798;4.358;2022-07-29T15:59:25;30.40;91.20
7576;DHT22;3829;50.798;4.358;2022-07-29T16:01:51;31.80;90.90
7576;DHT22;3829;50.798;4.358;2022-07-29T16:04:17;33.20;90.00
7576;DHT22;3829;50.798;4.358;2022-07-29T16:06:43;33.70;89.10
7576;DHT22;3829;50.798;4.358;2022-07-29T16:09:09;34.00;88.00
7576;DHT22;3829;50.798;4.358;2022-07-29T16:11:35;33.30;87.80
7576;DHT22;3829;50.798;4.358;2022-07-29T16:14:01;33.90;88.10
7576;DHT22;3829;50.798;4.358;2022-07-29T16:16:26;35.50;86.50
7576;DHT22;3829;50.798;4.358;2022-07-29T16:18:52;34.70;87.40
7576;DHT22;3829;50.798;4.358;2022-07-29T16:21:18;33.50;87.30
7576;DHT22;3829;50.798;4.358;2022-07-29T16:23:44;33.90;86.30
7576;DHT22;3829;50.798;4.358;2022-07-29T16:26:09;33.80;86.30
7576;DHT22;3829;50.798;4.358;2022-07-29T16:28:35;33.80;86.70
7576;DHT22;3829;50.798;4.358;2022-07-29T16:31:01;33.80;86.70
7576;DHT22;3829;50.798;4.358;2022-07-29T16:33:27;34.50;86.30
7576;DHT22;3829;50.798;4.358;2022-07-29T16:35:53;34.20;86.20
7576;DHT22;3829;50.798;4.358;2022-07-29T16:38:18;34.40;85.80
7576;DHT22;3829;50.798;4.358;2022-07-29T16:40:44;33.90;84.70
7576;DHT22;3829;50.798;4.358;2022-07-29T16:43:09;34.30;85.70
7576;DHT22;3829;50.798;4.358;2022-07-29T16:45:35;34.80;84.70
7576;DHT22;3829;50.798;4.358;2022-07-29T16:48:02;35.00;85.30